Time;durP1;ratioP1;P1;durP2;ratioP2;P2;SDS_P1;SDS_P2;PMS_P1;PMS_P2;Temp;Humidity;BMP_temperature;BMP_pressure;BME280_temperature;BME280_humidity;BME280_pressure;Samples;Min_cycle;Max_cycle;Signal;HPM_P1;HPM_P2
2023/01/28 00:00:10;;;;;;;43.25;26.85;;;;;;;1.92;84.56;97167.50;10285921;28;20061;-47
2023/01/28 00:05:09;;;;;;;35.90;24.17;;;;;;;1.91;84.40;97173.47;10285707;28;20069;-47
2023/01/28 00:10:08;;;;;;;;;;;;;;;1.93;84.50;97176.09;10286127;28;20061;-47
2023/01/28 00:15:09;;;;;;;22.83;14.30;;;;;;;1.88;84.66;97190.44;10286249;28;20070;-47
2023/01/28 00:20:09;;;;;;;28.83;18.88;;;;;;;1.85;84.55;97196.34;10286914;28;20402;-48
2023/01/28 00:25:08;;;;;;;27.90;17.73;;;;;;;1.87;84.34;97191.28;10282726;28;20484;-47
2023/01/28 00:30:08;;;;;;;26.73;17.25;;;;;;;1.79;84.32;97195.34;10285214;28;20494;-49
2023/01/28 00:35:07;;;;;;;19.83;14.30;;;;;;;1.79;84.38;97197.91;10284776;28;20871;-49
2023/01/28 00:40:08;;;;;;;21.05;13.15;;;;;;;1.79;85.02;97200.47;10285182;28;20477;-48
2023/01/28 00:45:07;;;;;;;22.27;14.70;;;;;;;1.81;85.29;97201.34;10285635;28;20089;-47
2023/01/28 00:50:07;;;;;;;;;;;;;;;1.87;84.92;97201.50;10285540;28;20069;-47
2023/01/28 00:55:06;;;;;;;21.50;13.32;;;;;;;1.83;84.87;97207.38;10289059;28;19961;-48
2023/01/28 01:00:06;;;;;;;17.17;11.05;;;;;;;1.84;85.05;97214.22;10292430;28;20065;-47
2023/01/28 01:05:06;;;;;;;18.33;12.15;;;;;;;1.75;85.03;97205.50;10292042;28;20069;-48
2023/01/28 01:10:05;;;;;;;20.33;13.02;;;;;;;1.74;85.34;97196.09;10289651;28;20116;-47
2023/01/28 01:15:09;;;;;;;18.80;12.63;;;;;;;1.70;85.03;97199.41;10291982;28;20540;-48
2023/01/28 01:20:13;;;;;;;21.98;13.98;;;;;;;1.69;85.69;97200.25;10291447;28;20076;-49
2023/01/28 01:25:13;;;;;;;20.75;12.77;;;;;;;1.70;86.04;97214.75;10292261;28;20100;-49
2023/01/28 01:30:12;;;;;;;23.33;14.02;;;;;;;1.72;85.71;97213.09;10290814;28;20085;-47
2023/01/28 01:35:11;;;;;;;;;;;;;;;1.80;85.47;97214.97;10291073;28;20565;-48
2023/01/28 01:40:11;;;;;;;23.65;14.55;;;;;;;1.83;85.74;97218.47;10290765;28;20393;-48
2023/01/28 01:45:13;;;;;;;23.90;15.18;;;;;;;1.85;85.65;97218.50;10290408;28;20085;-48
2023/01/28 01:50:19;;;;;;;22.70;13.80;;;;;;;1.69;85.20;97207.91;10289528;28;20472;-49
2023/01/28 01:55:20;;;;;;;17.48;11.18;;;;;;;1.77;85.29;97230.25;10289801;28;20065;-47
2023/01/28 02:00:19;;;;;;;15.77;10.20;;;;;;;1.67;85.33;97214.69;10289695;28;20477;-49
2023/01/28 02:05:21;;;;;;;16.75;11.10;;;;;;;1.77;85.49;97230.25;10288908;28;20077;-48
2023/01/28 02:10:21;;;;;;;17.20;10.45;;;;;;;1.74;85.67;97234.47;10289921;28;20074;-47
2023/01/28 02:15:23;;;;;;;18.08;11.98;;;;;;;1.78;86.12;97230.28;10289880;28;20074;-48
2023/01/28 02:20:33;;;;;;;17.35;11.35;;;;;;;1.82;85.92;97234.66;10289171;28;20485;-47
2023/01/28 02:26:05;;;;;;;17.63;12.38;;;;;;;1.81;85.75;97237.16;10288870;28;20065;-48
2023/01/28 02:31:28;;;;;;;18.45;12.35;;;;;;;1.88;85.32;97229.69;10288718;28;20076;-47
2023/01/28 02:36:33;;;;;;;16.85;11.82;;;;;;;1.91;85.10;97234.03;10286948;28;20081;-47
2023/01/28 02:41:39;;;;;;;19.55;13.13;;;;;;;1.87;85.30;97233.06;10288139;28;20481;-47
2023/01/28 02:52:12;;;;;;;23.65;16.02;;;;;;;1.88;84.67;97247.59;10288675;28;20069;-49
2023/01/28 02:57:36;;;;;;;20.90;14.30;;;;;;;1.84;84.66;97235.56;10288171;28;20460;-47
2023/01/28 03:02:35;;;;;;;32.13;21.55;;;;;;;1.79;84.64;97236.28;10287041;28;20064;-48
2023/01/28 03:07:37;;;;;;;26.20;17.98;;;;;;;1.79;84.46;97238.84;10287488;28;20030;-48
2023/01/28 03:39:31;;;;;;;28.38;17.70;;;;;;;1.56;85.95;97244.22;10287536;28;20054;-49
2023/01/28 03:49:49;;;;;;;33.53;20.30;;;;;;;1.39;86.01;97241.22;10286823;28;19980;-47
2023/01/28 03:54:48;;;;;;;25.70;16.40;;;;;;;1.31;86.72;97242.72;10285862;28;20057;-49
2023/01/28 03:59:48;;;;;;;;;;;;;;;1.45;86.09;97266.09;10285757;28;20065;-47
2023/01/28 04:04:48;;;;;;;;;;;;;;;1.49;86.56;97266.22;10286779;28;19960;-48
2023/01/28 04:09:47;;;;;;;35.40;21.10;;;;;;;1.54;86.20;97261.22;10285925;28;20029;-49
2023/01/28 04:14:46;;;;;;;41.08;24.95;;;;;;;1.40;86.08;97244.66;10285962;28;20080;-48
2023/01/28 04:19:45;;;;;;;48.75;27.48;;;;;;;1.60;86.20;97268.16;10285809;28;20041;-49
2023/01/28 04:24:44;;;;;;;42.28;25.02;;;;;;;1.61;85.79;97270.78;10285496;28;20021;-49
2023/01/28 04:29:43;;;;;;;37.78;22.92;;;;;;;1.64;85.88;97277.66;10289076;28;20433;-47
2023/01/28 04:34:42;;;;;;;26.30;17.90;;;;;;;1.71;86.29;97271.88;10292859;28;20029;-47
2023/01/28 04:39:41;;;;;;;27.45;16.95;;;;;;;1.73;84.92;97277.91;10293124;28;20113;-48
2023/01/28 04:44:40;;;;;;;20.13;13.65;;;;;;;1.52;85.68;97283.31;10290395;28;20045;-47
2023/01/28 04:49:39;;;;;;;17.33;10.98;;;;;;;1.37;86.27;97291.44;10293099;28;20116;-47
2023/01/28 04:54:38;;;;;;;;;;;;;;;0.97;87.41;97299.69;10292923;28;20065;-47
2023/01/28 04:59:37;;;;;;;20.27;12.50;;;;;;;0.92;87.98;97297.00;10292234;28;19953;-47
2023/01/28 05:04:35;;;;;;;33.67;21.98;;;;;;;0.72;87.46;97241.91;10291297;28;20033;-47
2023/01/28 05:09:35;;;;;;;33.90;20.50;;;;;;;1.15;87.65;97312.09;10292267;28;20075;-49
2023/01/28 05:14:34;;;;;;;26.50;16.65;;;;;;;0.99;87.63;97292.91;10291565;28;20065;-47
2023/01/28 05:19:33;;;;;;;31.05;19.70;;;;;;;1.10;88.07;97320.50;10291060;28;20032;-47
2023/01/28 05:24:32;;;;;;;41.88;23.77;;;;;;;1.13;87.87;97317.19;10288665;28;20116;-47
2023/01/28 05:29:31;;;;;;;27.73;16.85;;;;;;;0.98;88.35;97324.41;10290771;28;20037;-47
2023/01/28 05:34:30;;;;;;;21.27;14.15;;;;;;;1.05;88.46;97328.88;10289553;28;20032;-49
2023/01/28 05:39:30;;;;;;;;;;;;;;;1.15;88.13;97335.97;10289834;28;20117;-47
2023/01/28 05:44:29;;;;;;;47.05;28.08;;;;;;;1.27;87.72;97343.13;10289984;28;19953;-47
2023/01/28 05:49:27;;;;;;;;;;;;;;;1.33;87.81;97354.41;10290425;28;20040;-47
2023/01/28 05:54:27;;;;;;;50.50;30.27;;;;;;;1.24;88.09;97355.81;10289482;28;19913;-48
2023/01/28 05:59:26;;;;;;;54.97;34.30;;;;;;;1.26;88.02;97355.03;10289342;28;20098;-48
2023/01/28 06:04:25;;;;;;;41.22;28.33;;;;;;;1.29;88.00;97359.38;10288333;28;20113;-47
2023/01/28 06:09:24;;;;;;;38.65;23.85;;;;;;;1.44;87.70;97364.94;10286860;28;20042;-47
2023/01/28 06:14:23;;;;;;;35.38;22.80;;;;;;;1.29;87.48;97367.94;10288348;28;20041;-48
2023/01/28 06:19:22;;;;;;;33.70;21.25;;;;;;;1.11;87.89;97380.16;10288851;28;20116;-47
2023/01/28 06:24:20;;;;;;;40.22;24.25;;;;;;;1.10;88.19;97357.97;10288626;28;20037;-47
2023/01/28 06:29:19;;;;;;;31.25;20.23;;;;;;;1.20;88.55;97395.78;10288805;28;20124;-48
2023/01/28 06:34:18;;;;;;;25.60;16.40;;;;;;;1.25;87.90;97394.22;10287651;28;20060;-47
2023/01/28 06:39:20;;;;;;;31.45;19.90;;;;;;;1.35;88.30;97395.34;10289662;28;20037;-50
2023/01/28 06:44:19;;;;;;;41.00;26.40;;;;;;;1.44;88.38;97399.88;10287691;28;20079;-49
2023/01/28 06:49:19;;;;;;;27.42;17.67;;;;;;;1.43;88.32;97411.75;10285763;28;20053;-48
2023/01/28 06:54:18;;;;;;;56.58;41.80;;;;;;;1.49;88.44;97414.50;10287092;28;20084;-47
2023/01/28 06:59:17;;;;;;;34.60;21.50;;;;;;;1.12;88.76;97420.22;10281712;28;20023;-49
2023/01/28 07:04:16;;;;;;;43.95;28.38;;;;;;;1.06;89.01;97412.34;10277524;28;20065;-46
2023/01/28 07:09:15;;;;;;;29.63;19.30;;;;;;;1.00;89.25;97419.84;10286139;28;20117;-46
2023/01/28 07:14:14;;;;;;;36.63;20.83;;;;;;;1.00;89.98;97437.72;10286075;28;20068;-47
2023/01/28 07:19:13;;;;;;;31.27;20.73;;;;;;;1.08;90.07;97447.38;10276667;28;20034;-47
2023/01/28 07:24:12;;;;;;;33.60;19.77;;;;;;;1.11;90.31;97452.56;10275357;28;20150;-47
2023/01/28 07:29:10;;;;;;;21.05;13.98;;;;;;;1.18;89.22;97451.09;10286110;28;20054;-47
2023/01/28 07:34:09;;;;;;;25.98;16.20;;;;;;;1.21;88.99;97463.09;10284182;28;20034;-50
2023/01/28 07:39:08;;;;;;;36.88;23.17;;;;;;;1.40;89.32;97462.81;10286839;28;20483;-49
2023/01/28 07:44:07;;;;;;;51.58;32.95;;;;;;;1.57;88.48;97447.97;10285695;28;20128;-48
2023/01/28 07:49:06;;;;;;;33.00;23.90;;;;;;;1.72;89.03;97470.59;10286405;28;20038;-47
2023/01/28 07:54:05;;;;;;;43.15;29.25;;;;;;;2.08;88.28;97475.88;10286060;28;20048;-49
2023/01/28 07:59:04;;;;;;;71.32;38.25;;;;;;;2.31;87.98;97480.75;10286665;28;20109;-47
2023/01/28 08:04:03;;;;;;;99.65;53.08;;;;;;;2.10;86.93;97399.13;10288388;28;20116;-47
2023/01/28 08:09:07;;;;;;;52.63;30.23;;;;;;;2.78;85.91;97478.56;10294329;28;20543;-49
2023/01/28 08:14:06;;;;;;;25.88;16.80;;;;;;;2.77;82.72;97469.16;10296789;28;20069;-48
2023/01/28 08:19:05;;;;;;;28.98;18.98;;;;;;;2.84;81.51;97478.72;10299585;28;20147;-47
2023/01/28 08:24:04;;;;;;;;;;;;;;;2.79;80.69;97486.28;10285857;28;20065;-49
2023/01/28 08:29:03;;;;;;;64.65;32.50;;;;;;;2.80;80.37;97489.72;10293250;28;20000;-49
2023/01/28 08:34:02;;;;;;;24.08;17.88;;;;;;;2.81;79.53;97489.72;10292532;28;20037;-49
2023/01/28 08:39:01;;;;;;;15.48;11.23;;;;;;;2.75;79.77;97499.84;10293139;28;20409;-47
2023/01/28 08:44:00;;;;;;;22.80;15.95;;;;;;;2.14;79.57;97447.88;10292844;28;20033;-47
2023/01/28 08:48:58;;;;;;;;;;;;;;;2.35;79.88;97503.91;10294255;28;20092;-48
2023/01/28 08:53:57;;;;;;;26.15;15.13;;;;;;;1.53;80.17;97354.13;10292595;28;20010;-47
2023/01/28 08:58:59;;;;;;;30.55;18.98;;;;;;;2.18;79.28;97515.38;10289827;28;20118;-47
2023/01/28 09:03:58;;;;;;;24.48;15.35;;;;;;;2.24;79.46;97514.69;10292391;28;20080;-49
2023/01/28 09:09:00;;;;;;;14.95;8.90;;;;;;;2.15;79.46;97515.31;10292326;28;20054;-47
2023/01/28 09:13:59;;;;;;;17.95;13.25;;;;;;;1.94;79.45;97500.19;10291580;28;20528;-49
2023/01/28 09:18:58;;;;;;;33.35;21.92;;;;;;;1.05;80.67;97357.84;10291303;28;20034;-47
2023/01/28 09:23:57;;;;;;;17.60;12.45;;;;;;;1.98;81.00;97522.50;10291335;28;20048;-48
2023/01/28 09:28:56;;;;;;;20.35;13.02;;;;;;;2.15;79.00;97520.41;10290948;28;20085;-47
2023/01/28 09:33:56;;;;;;;14.93;10.45;;;;;;;2.07;79.29;97509.97;10291159;28;20481;-47
2023/01/28 09:38:55;;;;;;;29.13;18.77;;;;;;;2.15;78.75;97503.38;10269061;28;20065;-50
2023/01/28 09:44:27;;;;;;;29.73;18.95;;;;;;;1.83;80.83;97509.25;10288457;28;20145;-47
2023/01/28 09:49:34;;;;;;;20.65;14.90;;;;;;;1.71;81.13;97517.44;10285733;28;20081;-47
2023/01/28 09:54:48;;;;;;;23.30;15.88;;;;;;;1.44;80.60;97456.13;10290474;28;20489;-47
2023/01/28 09:59:48;;;;;;;34.15;23.95;;;;;;;1.73;81.40;97515.78;10289295;28;20073;-47
2023/01/28 10:05:07;;;;;;;29.23;19.45;;;;;;;1.81;81.47;97508.34;10289819;28;20844;-49
2023/01/28 10:10:43;;;;;;;56.33;35.45;;;;;;;2.00;81.02;97510.63;10286128;28;20129;-47
2023/01/28 10:16:16;;;;;;;23.98;16.75;;;;;;;2.20;80.00;97513.72;10284109;28;20065;-48
2023/01/28 10:21:36;;;;;;;18.05;13.20;;;;;;;2.10;79.80;97473.34;10287998;28;20501;-49
2023/01/28 10:26:40;;;;;;;29.92;21.50;;;;;;;2.46;78.76;97508.44;10285747;28;20081;-47
2023/01/28 10:31:49;;;;;;;27.95;19.60;;;;;;;2.23;79.26;97478.00;10288443;28;20088;-47
2023/01/28 10:36:49;;;;;;;;;;;;;;;2.56;78.73;97513.88;10288754;28;20065;-47
2023/01/28 10:41:48;;;;;;;137.80;54.77;;;;;;;2.68;77.98;97518.44;10289007;28;19933;-47
2023/01/28 10:46:49;;;;;;;80.45;39.80;;;;;;;2.76;77.17;97521.22;10288397;28;20037;-47
2023/01/28 10:51:48;;;;;;;43.40;27.58;;;;;;;2.74;76.50;97517.72;10288107;28;20557;-47
2023/01/28 10:56:50;;;;;;;26.00;18.70;;;;;;;2.84;77.66;97517.16;10288102;28;20057;-50
2023/01/28 11:01:52;;;;;;;24.88;18.92;;;;;;;2.86;77.07;97502.66;10287086;28;20065;-48
2023/01/28 11:06:54;;;;;;;28.25;20.13;;;;;;;2.93;78.29;97521.63;10285533;28;20064;-49
2023/01/28 11:11:53;;;;;;;21.45;15.77;;;;;;;3.01;77.41;97513.31;10286911;28;20065;-47
2023/01/28 11:16:53;;;;;;;;;;;;;;;3.03;77.52;97521.06;10287506;28;20513;-47
2023/01/28 11:21:54;;;;;;;;;;;;;;;2.97;77.15;97516.63;10286835;28;19976;-50
2023/01/28 11:26:55;;;;;;;35.03;23.13;;;;;;;2.76;78.58;97513.53;10286714;28;19948;-49
2023/01/28 11:31:55;;;;;;;25.98;18.95;;;;;;;2.61;79.90;97469.59;10285660;28;20084;-48
2023/01/28 11:37:12;;;;;;;43.65;27.80;;;;;;;2.67;79.75;97450.09;10286464;28;20509;-47
2023/01/28 11:42:16;;;;;;;50.47;36.50;;;;;;;3.34;79.81;97506.41;10285525;28;20485;-50
2023/01/28 11:47:32;;;;;;;53.20;38.47;;;;;;;3.65;79.67;97510.53;10286010;28;20414;-48
2023/01/28 11:53:01;;;;;;;34.50;25.90;;;;;;;3.94;77.79;97505.13;10283752;28;20062;-49
2023/01/28 11:58:12;;;;;;;43.45;30.88;;;;;;;4.20;77.97;97508.28;10284916;28;20096;-47
2023/01/28 12:03:42;;;;;;;32.75;23.77;;;;;;;4.30;77.41;97499.91;10286159;28;20504;-47
2023/01/28 12:08:53;;;;;;;34.13;26.95;;;;;;;4.35;75.36;97495.72;10285471;28;20118;-47
2023/01/28 12:14:05;;;;;;;38.55;28.77;;;;;;;4.44;75.82;97498.47;10285632;28;20065;-47
2023/01/28 12:19:13;;;;;;;31.02;22.88;;;;;;;4.40;75.43;97498.38;10285237;28;20061;-50
2023/01/28 12:24:56;;;;;;;29.35;21.13;;;;;;;4.29;76.22;97509.31;10285927;28;20075;-49
2023/01/28 12:30:09;;;;;;;26.40;19.75;;;;;;;4.35;76.67;97512.84;10284944;28;20084;-48
2023/01/28 12:35:17;;;;;;;27.67;20.00;;;;;;;4.38;76.64;97512.88;10285155;28;20076;-48
2023/01/28 12:40:28;;;;;;;24.55;16.98;;;;;;;4.31;73.94;97513.59;10283964;28;20049;-48
2023/01/28 12:45:39;;;;;;;29.30;21.80;;;;;;;4.25;75.59;97517.78;10285777;28;20065;-49
2023/01/28 12:50:48;;;;;;;34.90;23.98;;;;;;;4.08;76.07;97472.94;10285949;28;20076;-49
2023/01/28 12:56:05;;;;;;;34.67;24.63;;;;;;;4.40;75.34;97527.50;10293901;28;20129;-49
2023/01/28 13:01:09;;;;;;;40.55;29.08;;;;;;;4.22;74.84;97486.03;10292382;28;20061;-49
2023/01/28 13:06:18;;;;;;;44.90;31.55;;;;;;;4.12;74.63;97489.25;10288435;28;20559;-47
2023/01/28 13:11:18;;;;;;;34.55;26.45;;;;;;;4.18;74.78;97535.63;10291786;28;20065;-46
2023/01/28 13:16:17;;;;;;;33.80;26.10;;;;;;;4.20;74.46;97527.09;10289823;28;20065;-49
2023/01/28 13:21:31;;;;;;;29.50;21.00;;;;;;;4.25;74.22;97535.75;10288022;28;20092;-47
2023/01/28 13:26:40;;;;;;;26.58;19.75;;;;;;;4.15;74.11;97540.66;10291353;28;20069;-47
2023/01/28 13:31:44;;;;;;;;;;;;;;;4.02;74.57;97539.56;10291320;28;20073;-48
2023/01/28 13:36:46;;;;;;;33.17;23.92;;;;;;;3.93;75.94;97534.22;10287635;28;20005;-46
2023/01/28 13:41:54;;;;;;;22.67;16.25;;;;;;;3.93;76.19;97557.34;10288494;28;20544;-48
2023/01/28 13:46:58;;;;;;;24.65;17.83;;;;;;;3.97;75.60;97552.31;10289971;28;20065;-47
2023/01/28 13:52:08;;;;;;;27.23;20.05;;;;;;;3.98;76.23;97555.72;10290573;28;20061;-49
2023/01/28 13:57:09;;;;;;;;;;;;;;;4.08;75.90;97560.25;10288728;28;20497;-49
2023/01/28 14:02:17;;;;;;;23.13;16.52;;;;;;;4.00;74.66;97566.91;10288881;28;19959;-47
2023/01/28 14:07:30;;;;;;;39.15;27.77;;;;;;;3.94;75.24;97570.22;10289777;28;20457;-49
2023/01/28 14:12:39;;;;;;;29.63;21.65;;;;;;;3.83;75.26;97558.84;10289267;28;20081;-46
2023/01/28 14:17:47;;;;;;;59.88;33.50;;;;;;;3.37;75.29;97481.66;10289712;28;20054;-48
2023/01/28 14:22:48;;;;;;;38.95;24.42;;;;;;;3.94;74.90;97585.63;10289953;28;20065;-46
2023/01/28 14:27:52;;;;;;;29.30;21.35;;;;;;;3.88;76.03;97584.59;10289289;28;20073;-47
2023/01/28 14:32:53;;;;;;;32.03;22.58;;;;;;;3.86;75.75;97595.69;10288901;28;20081;-49
2023/01/28 14:37:53;;;;;;;34.22;22.52;;;;;;;3.72;75.60;97593.66;10288778;28;20096;-46
2023/01/28 14:42:55;;;;;;;41.47;28.58;;;;;;;3.59;76.10;97595.94;10286725;28;20082;-47
2023/01/28 14:48:18;;;;;;;43.03;28.85;;;;;;;3.56;76.36;97610.38;10289398;28;20073;-46
2023/01/28 14:53:19;;;;;;;46.25;31.90;;;;;;;3.43;77.90;97604.09;10288256;28;20096;-47
2023/01/28 14:58:24;;;;;;;48.63;34.50;;;;;;;3.10;78.19;97556.25;10287745;28;20061;-47
2023/01/28 15:03:23;;;;;;;52.67;35.13;;;;;;;3.46;78.23;97614.41;10287403;28;20066;-50
2023/01/28 15:08:22;;;;;;;46.22;31.92;;;;;;;3.40;77.13;97615.16;10287709;28;20076;-48
2023/01/28 15:13:27;;;;;;;51.20;34.33;;;;;;;3.22;78.32;97624.94;10287498;28;20065;-47
2023/01/28 15:18:32;;;;;;;52.40;36.60;;;;;;;3.11;78.93;97623.78;10287553;28;20054;-47
2023/01/28 15:23:35;;;;;;;67.35;44.05;;;;;;;3.04;78.73;97620.19;10284714;28;20084;-49
2023/01/28 15:28:37;;;;;;;59.35;38.95;;;;;;;2.97;79.10;97614.03;10286929;28;20077;-46
2023/01/28 15:33:36;;;;;;;56.92;37.17;;;;;;;2.92;79.58;97620.72;10286812;28;20061;-46
2023/01/28 15:38:35;;;;;;;41.05;28.30;;;;;;;2.79;80.32;97616.09;10286458;28;20043;-47
2023/01/28 15:43:37;;;;;;;72.13;42.97;;;;;;;2.27;79.84;97535.25;10286220;28;20040;-47
2023/01/28 15:48:40;;;;;;;82.72;53.35;;;;;;;2.72;80.08;97629.56;10285728;28;20485;-47
2023/01/28 15:53:45;;;;;;;73.72;48.80;;;;;;;2.72;80.83;97639.81;10285705;28;20065;-46
2023/01/28 15:58:45;;;;;;;78.53;53.00;;;;;;;2.61;81.19;97629.28;10286160;28;20157;-46
2023/01/28 16:03:46;;;;;;;68.32;43.90;;;;;;;2.71;81.73;97635.53;10286516;28;20080;-46
2023/01/28 16:08:53;;;;;;;86.20;52.72;;;;;;;2.67;81.69;97651.63;10284322;28;20077;-48
2023/01/28 16:13:52;;;;;;;81.78;56.58;;;;;;;2.53;81.72;97656.34;10285858;28;20073;-47
2023/01/28 16:18:54;;;;;;;87.43;55.88;;;;;;;2.34;82.83;97660.06;10285546;28;20062;-48
2023/01/28 16:24:02;;;;;;;67.82;45.95;;;;;;;2.31;83.42;97654.88;10286976;28;20076;-47
2023/01/28 16:29:28;;;;;;;60.70;42.17;;;;;;;2.31;83.12;97673.66;10293760;28;20521;-49
2023/01/28 16:34:27;;;;;;;83.68;52.63;;;;;;;2.28;83.10;97672.72;10291325;28;20068;-47
2023/01/28 16:39:26;;;;;;;99.35;57.72;;;;;;;1.88;83.58;97604.91;10293502;28;20437;-47
2023/01/28 16:44:25;;;;;;;140.57;77.43;;;;;;;2.20;84.13;97682.69;10300335;28;20037;-47
2023/01/28 16:49:24;;;;;;;188.90;101.28;;;;;;;2.20;83.98;97682.69;10291112;28;20040;-49
2023/01/28 16:54:23;;;;;;;145.85;82.80;;;;;;;1.99;84.75;97682.91;10283490;28;20038;-49
2023/01/28 16:59:22;;;;;;;141.50;76.50;;;;;;;2.09;84.89;97695.19;10279187;28;20285;-47
2023/01/28 17:04:21;;;;;;;126.70;69.45;;;;;;;2.07;85.43;97696.81;10282727;28;20048;-48
2023/01/28 17:09:20;;;;;;;;;;;;;;;1.89;85.62;97697.09;10286053;28;20120;-47
2023/01/28 17:14:19;;;;;;;103.18;57.88;;;;;;;1.89;86.06;97691.13;10280936;28;20013;-46
2023/01/28 17:19:18;;;;;;;91.88;50.22;;;;;;;1.88;86.11;97705.59;10289367;28;20137;-49
2023/01/28 17:24:17;;;;;;;87.55;51.22;;;;;;;1.61;86.18;97679.13;10286079;28;20464;-46
2023/01/28 17:29:16;;;;;;;103.35;59.28;;;;;;;1.77;86.58;97700.97;10288459;28;20046;-47
2023/01/28 17:34:15;;;;;;;111.03;63.25;;;;;;;1.30;87.04;97653.41;10286108;28;20046;-47
2023/01/28 17:39:14;;;;;;;107.63;66.57;;;;;;;1.54;87.88;97711.28;10283340;28;20348;-48
2023/01/28 17:44:13;;;;;;;102.68;58.78;;;;;;;1.40;88.13;97695.47;10287457;28;20045;-47
2023/01/28 17:49:12;;;;;;;;;;;;;;;1.57;87.90;97721.59;10289699;28;20125;-47
2023/01/28 17:54:11;;;;;;;96.88;52.95;;;;;;;1.63;88.14;97724.38;10288124;28;19920;-47
2023/01/28 17:59:13;;;;;;;103.95;57.60;;;;;;;1.66;88.43;97732.16;10289117;28;20906;-47
2023/01/28 18:04:12;;;;;;;105.32;57.72;;;;;;;1.72;88.11;97727.25;10286392;28;20073;-48
2023/01/28 18:09:12;;;;;;;82.35;49.83;;;;;;;1.41;88.00;97668.22;10270926;28;20144;-50
2023/01/28 18:14:10;;;;;;;95.10;50.45;;;;;;;1.75;87.80;97724.78;10288575;28;20474;-48
2023/01/28 18:19:09;;;;;;;100.43;53.65;;;;;;;1.80;87.79;97736.88;10287890;28;20037;-48
2023/01/28 18:24:09;;;;;;;120.50;68.07;;;;;;;1.57;88.38;97679.81;10288247;28;20084;-49
2023/01/28 18:29:08;;;;;;;;;;;;;;;1.98;88.18;97742.59;10288510;28;20080;-48
2023/01/28 18:34:06;;;;;;;146.45;74.82;;;;;;;2.11;88.35;97744.72;10288066;28;19917;-47
2023/01/28 18:39:05;;;;;;;91.20;50.25;;;;;;;2.19;87.48;97751.78;10287305;28;20032;-47
2023/01/28 18:44:07;;;;;;;76.20;44.35;;;;;;;2.12;87.36;97750.72;10287256;28;20125;-49
2023/01/28 18:49:06;;;;;;;78.97;43.53;;;;;;;2.04;87.75;97724.00;10286511;28;20061;-47
2023/01/28 18:54:05;;;;;;;104.93;58.60;;;;;;;2.08;87.14;97744.63;10287124;28;20175;-48
2023/01/28 18:59:08;;;;;;;63.13;35.85;;;;;;;2.03;87.64;97755.53;10284581;28;20523;-50
2023/01/28 19:04:08;;;;;;;54.08;31.92;;;;;;;2.19;87.72;97749.22;10286464;28;20564;-48
2023/01/28 19:09:10;;;;;;;49.15;27.70;;;;;;;2.13;87.02;97731.97;10286600;28;20100;-50
2023/01/28 19:14:13;;;;;;;38.90;24.70;;;;;;;2.21;86.27;97753.56;10286207;28;20511;-48
2023/01/28 19:19:12;;;;;;;38.08;22.88;;;;;;;2.25;86.39;97767.31;10289802;28;20069;-50
2023/01/28 19:24:12;;;;;;;41.45;24.35;;;;;;;2.15;86.77;97738.00;10274303;28;20061;-50
2023/01/28 19:29:12;;;;;;;41.47;26.08;;;;;;;2.37;86.00;97777.94;10285116;28;20517;-50
2023/01/28 19:34:11;;;;;;;34.58;22.98;;;;;;;2.34;86.06;97775.28;10284397;28;20061;-48
2023/01/28 19:39:11;;;;;;;38.70;22.50;;;;;;;2.17;86.27;97750.03;10283860;28;20082;-49
2023/01/28 19:44:10;;;;;;;31.27;19.75;;;;;;;2.43;86.27;97778.16;10285013;28;20077;-50
2023/01/28 19:49:11;;;;;;;;;;;;;;;2.48;85.62;97783.41;10285441;28;20165;-48
2023/01/28 19:54:10;;;;;;;27.70;18.02;;;;;;;2.52;85.50;97783.56;10285465;28;19941;-48
2023/01/28 19:59:08;;;;;;;29.88;21.27;;;;;;;2.40;85.07;97787.44;10284494;28;20065;-48
2023/01/28 20:04:07;;;;;;;43.65;29.27;;;;;;;2.44;85.38;97785.03;10283791;28;20117;-48
2023/01/28 20:09:14;;;;;;;32.05;21.75;;;;;;;2.42;85.33;97791.78;10284111;28;20033;-47
2023/01/28 20:14:17;;;;;;;40.42;27.80;;;;;;;2.47;85.07;97791.94;10285751;28;20073;-47
2023/01/28 20:19:17;;;;;;;32.40;21.70;;;;;;;2.52;85.27;97787.81;10284347;28;20057;-48
2023/01/28 20:24:16;;;;;;;33.50;21.88;;;;;;;2.53;85.33;97795.53;10280972;28;20568;-48
2023/01/28 20:29:18;;;;;;;52.85;29.88;;;;;;;2.54;85.76;97797.28;10284666;28;20053;-48
2023/01/28 20:34:18;;;;;;;68.82;38.33;;;;;;;2.56;85.54;97805.91;10277990;28;20516;-47
2023/01/28 20:39:17;;;;;;;58.97;33.28;;;;;;;2.62;85.69;97805.19;10282193;28;20065;-50
2023/01/28 20:44:16;;;;;;;56.80;34.10;;;;;;;2.66;85.01;97816.44;10267280;28;20053;-48
2023/01/28 20:49:15;;;;;;;56.40;36.47;;;;;;;2.63;85.10;97813.75;10280331;28;20045;-49
2023/01/28 20:54:16;;;;;;;53.70;33.13;;;;;;;2.61;84.69;97812.88;10280536;28;20032;-48
2023/01/28 20:59:15;;;;;;;69.40;41.47;;;;;;;2.50;84.31;97802.28;10279495;28;20061;-48
2023/01/28 21:04:15;;;;;;;68.30;44.60;;;;;;;2.51;84.23;97817.69;10278200;28;20046;-49
2023/01/28 21:09:14;;;;;;;68.07;42.50;;;;;;;2.39;84.29;97819.84;10279750;28;20153;-50
2023/01/28 21:14:15;;;;;;;104.22;64.00;;;;;;;2.32;84.77;97817.91;10286607;28;20038;-50
2023/01/28 21:19:14;;;;;;;117.03;67.57;;;;;;;2.36;85.07;97825.72;10288491;28;20563;-48
2023/01/28 21:24:13;;;;;;;82.38;49.53;;;;;;;2.37;85.25;97824.94;10287214;28;20980;-50
2023/01/28 21:29:13;;;;;;;98.60;60.05;;;;;;;2.42;85.09;97827.66;10286055;28;20388;-49
2023/01/28 21:34:13;;;;;;;96.88;60.42;;;;;;;2.40;84.82;97828.41;10283068;28;20132;-49
2023/01/28 21:39:12;;;;;;;101.30;63.20;;;;;;;2.06;85.08;97766.72;10284137;28;20513;-49
2023/01/28 21:44:11;;;;;;;141.43;84.70;;;;;;;2.27;84.79;97793.84;10284508;28;20034;-49
2023/01/28 21:49:10;;;;;;;161.70;95.45;;;;;;;2.39;84.94;97827.53;10283555;28;20458;-48
2023/01/28 21:54:12;;;;;;;147.68;88.00;;;;;;;2.29;85.29;97826.34;10284776;28;20041;-50
2023/01/28 21:59:27;;;;;;;133.20;78.78;;;;;;;2.30;85.13;97828.13;10283388;28;20125;-48
2023/01/28 22:04:32;;;;;;;127.93;72.93;;;;;;;2.17;85.85;97829.38;10284173;28;20513;-48
2023/01/28 22:09:32;;;;;;;88.53;48.83;;;;;;;1.94;86.82;97826.06;10284348;28;20168;-47
2023/01/28 22:14:32;;;;;;;91.13;47.67;;;;;;;1.82;87.35;97843.56;10284358;28;20061;-49
2023/01/28 22:19:31;;;;;;;82.57;43.78;;;;;;;1.58;87.39;97802.66;10271937;28;20435;-49
2023/01/28 22:24:30;;;;;;;91.38;47.53;;;;;;;1.84;87.27;97833.38;10272109;28;20120;-48
2023/01/28 22:29:29;;;;;;;81.07;45.13;;;;;;;1.90;87.56;97831.00;10283366;28;20490;-50
2023/01/28 22:34:28;;;;;;;91.93;48.63;;;;;;;1.90;86.82;97807.97;10261749;28;20045;-49
2023/01/28 22:39:27;;;;;;;98.10;52.67;;;;;;;1.85;86.99;97786.50;10287252;28;20037;-48
2023/01/28 22:44:26;;;;;;;97.03;52.25;;;;;;;2.11;86.61;97826.66;10279498;28;20473;-47
2023/01/28 22:49:25;;;;;;;93.72;50.90;;;;;;;2.15;86.90;97825.91;10278261;28;20033;-50
2023/01/28 22:54:24;;;;;;;102.97;54.95;;;;;;;2.13;86.79;97803.63;10272271;28;20069;-49
2023/01/28 22:59:23;;;;;;;108.82;58.15;;;;;;;2.26;86.08;97827.97;10287025;28;20030;-48
2023/01/28 23:04:22;;;;;;;105.35;58.17;;;;;;;1.87;85.95;97744.78;10286017;28;20075;-48
2023/01/28 23:09:21;;;;;;;107.28;59.80;;;;;;;2.28;85.69;97828.91;10284267;28;20042;-50
2023/01/28 23:24:55;;;;;;;48.78;30.45;;;;;;;2.12;86.23;97824.94;10280047;28;20065;-47
2023/01/28 23:29:53;;;;;;;68.45;38.03;;;;;;;1.74;86.24;97778.47;10283195;28;20133;-50
2023/01/28 23:34:53;;;;;;;58.63;35.60;;;;;;;1.85;86.16;97794.16;10285792;28;20113;-50
2023/01/28 23:39:52;;;;;;;59.78;34.90;;;;;;;1.94;86.63;97827.75;10285921;28;20061;-48
2023/01/28 23:44:51;;;;;;;58.22;34.85;;;;;;;1.87;87.03;97842.03;10285320;28;20144;-47
2023/01/28 23:49:49;;;;;;;84.90;44.20;;;;;;;1.92;86.72;97849.84;10286034;28;20428;-49
2023/01/28 23:54:48;;;;;;;64.65;35.47;;;;;;;1.89;86.86;97844.66;10282572;28;20140;-48
2023/01/28 23:59:47;;;;;;;50.25;28.80;;;;;;;1.90;86.59;97839.59;10284531;28;20080;-50
